Map

Track Data

SID SEASON NUMBER BASIN SUBBASIN NAME ISO_TIME NATURE LAT LON WMO_WIND WMO_PRES WMO_AGENCY TRACK_TYPE DIST2LAND LANDFALL IFLAG USA_AGENCY USA_ATCF_ID USA_LAT USA_LON USA_RECORD USA_STATUS USA_WIND USA_PRES USA_SSHS USA_R34_NE USA_R34_SE USA_R34_SW USA_R34_NW USA_R50_NE USA_R50_SE USA_R50_SW USA_R50_NW USA_R64_NE USA_R64_SE USA_R64_SW USA_R64_NW USA_POCI USA_ROCI USA_RMW USA_EYE TOKYO_LAT TOKYO_LON TOKYO_GRADE TOKYO_WIND TOKYO_PRES TOKYO_R50_DIR TOKYO_R50_LONG TOKYO_R50_SHORT TOKYO_R30_DIR TOKYO_R30_LONG TOKYO_R30_SHORT TOKYO_LAND CMA_LAT CMA_LON CMA_CAT CMA_WIND CMA_PRES HKO_LAT HKO_LON HKO_CAT HKO_WIND HKO_PRES NEWDELHI_LAT NEWDELHI_LON NEWDELHI_GRADE NEWDELHI_WIND NEWDELHI_PRES NEWDELHI_CI NEWDELHI_DP NEWDELHI_POCI REUNION_LAT REUNION_LON REUNION_TYPE REUNION_WIND REUNION_PRES REUNION_TNUM REUNION_CI REUNION_RMW REUNION_R34_NE REUNION_R34_SE REUNION_R34_SW REUNION_R34_NW REUNION_R50_NE REUNION_R50_SE REUNION_R50_SW REUNION_R50_NW REUNION_R64_NE REUNION_R64_SE REUNION_R64_SW REUNION_R64_NW BOM_LAT BOM_LON BOM_TYPE BOM_WIND BOM_PRES BOM_TNUM BOM_CI BOM_RMW BOM_R34_NE BOM_R34_SE BOM_R34_SW BOM_R34_NW BOM_R50_NE BOM_R50_SE BOM_R50_SW BOM_R50_NW BOM_R64_NE BOM_R64_SE BOM_R64_SW BOM_R64_NW BOM_ROCI BOM_POCI BOM_EYE BOM_POS_METHOD BOM_PRES_METHOD NADI_LAT NADI_LON NADI_CAT NADI_WIND NADI_PRES WELLINGTON_LAT WELLINGTON_LON WELLINGTON_WIND WELLINGTON_PRES DS824_LAT DS824_LON DS824_STAGE DS824_WIND DS824_PRES TD9636_LAT TD9636_LON TD9636_STAGE TD9636_WIND TD9636_PRES TD9635_LAT TD9635_LON TD9635_WIND TD9635_PRES TD9635_ROCI NEUMANN_LAT NEUMANN_LON NEUMANN_CLASS NEUMANN_WIND NEUMANN_PRES MLC_LAT MLC_LON MLC_CLASS MLC_WIND MLC_PRES USA_GUST BOM_GUST BOM_GUST_PER REUNION_GUST REUNION_GUST_PER USA_SEAHGT USA_SEARAD_NE USA_SEARAD_SE USA_SEARAD_SW USA_SEARAD_NW STORM_SPEED STORM_DIR
1892102S11062 1892 13 SI MM NOT_NAMED 1892-04-11 00:00:00 TS -11.0000 61.8000 main 1109 1060 _________O____ -1 -11.0000 61.8000 TC 15 251
1892102S11062 1892 13 SI MM NOT_NAMED 1892-04-11 03:00:00 TS -11.2403 61.1027 main 1060 1004 _________P____ -1 -11.2403 61.1027 TC 15 250
1892102S11062 1892 13 SI MM NOT_NAMED 1892-04-11 06:00:00 TS -11.5000 60.4000 main 1004 953 _________O____ -1 -11.5000 60.4000 TC 15 248
1892102S11062 1892 13 SI MM NOT_NAMED 1892-04-11 09:00:00 TS -11.7924 59.6924 main 953 906 _________P____ -1 -11.7924 59.6924 TC 15 246
1892102S11062 1892 13 SI MM NOT_NAMED 1892-04-11 12:00:00 TS -12.1000 59.0000 main 906 865 _________O____ -1 -12.1000 59.0000 TC 15 245
1892102S11062 1892 13 SI MM NOT_NAMED 1892-04-11 15:00:00 TS -12.3998 58.3349 main 864 826 _________P____ -1 -12.3998 58.3349 TC 14 245
1892102S11062 1892 13 SI MM NOT_NAMED 1892-04-11 18:00:00 TS -12.7000 57.7000 main 826 753 _________O____ -1 -12.7000 57.7000 TC 14 244
1892102S11062 1892 13 SI MM NOT_NAMED 1892-04-11 21:00:00 TS -12.9924 57.0699 main 753 680 _________P____ -1 -12.9924 57.0699 TC 13 243
1892102S11062 1892 13 SI MM NOT_NAMED 1892-04-12 00:00:00 TS -13.3000 56.5000 main 680 619 _________O____ -1 -13.3000 56.5000 TC 12 239
1892102S11062 1892 13 SI MM NOT_NAMED 1892-04-12 03:00:00 TS -13.6199 56.0048 main 619 565 _________P____ -1 -13.6199 56.0048 TC 11 231
1892102S11062 1892 13 SI MM NOT_NAMED 1892-04-12 06:00:00 TS -14.0000 55.6000 main 565 523 _________O____ -1 -14.0000 55.6000 TC 11 221
1892102S11062 1892 13 SI MM NOT_NAMED 1892-04-12 09:00:00 TS -14.4550 55.2475 main 511 483 _________P____ -1 -14.4550 55.2475 TC 12 210
1892102S11062 1892 13 SI MM NOT_NAMED 1892-04-12 12:00:00 TS -15.0000 55.0000 main 483 461 _________O____ -1 -15.0000 55.0000 TC 13 199
1892102S11062 1892 13 SI MM NOT_NAMED 1892-04-12 15:00:00 TS -15.6424 54.8252 main 461 461 _________P____ -1 -15.6424 54.8252 TC 13 189
1892102S11062 1892 13 SI MM NOT_NAMED 1892-04-12 18:00:00 TS -16.3000 54.8000 main 471 450 _________O____ -1 -16.3000 54.8000 TC 13 175
1892102S11062 1892 13 SI MM NOT_NAMED 1892-04-12 21:00:00 TS -16.9025 54.9472 main 450 387 _________P____ -1 -16.9025 54.9472 TC 12 161
1892102S11062 1892 13 SI MM NOT_NAMED 1892-04-13 00:00:00 TS -17.4000 55.2000 main 387 347 _________O____ -1 -17.4000 55.2000 TC 10 150
1892102S11062 1892 13 SI MM NOT_NAMED 1892-04-13 03:00:00 TS -17.7375 55.4427 main 347 301 _________P____ -1 -17.7375 55.4427 TC 8 142
1892102S11062 1892 13 SI MM NOT_NAMED 1892-04-13 06:00:00 TS -18.0000 55.7000 main 301 262 _________O____ -1 -18.0000 55.7000 TC 7 139
1892102S11062 1892 13 SI MM NOT_NAMED 1892-04-13 09:00:00 TS -18.3000 55.9501 main 255 216 _________P____ -1 -18.3000 55.9501 TC 8 142
1892102S11062 1892 13 SI MM NOT_NAMED 1892-04-13 12:00:00 TS -18.6000 56.2000 main 216 176 _________O____ -1 -18.6000 56.2000 TC 8 142
1892102S11062 1892 13 SI MM NOT_NAMED 1892-04-13 15:00:00 TS -18.9000 56.4501 main 170 130 _________P____ -1 -18.9000 56.4501 TC 8 142
1892102S11062 1892 13 SI MM NOT_NAMED 1892-04-13 18:00:00 TS -19.2000 56.7000 main 130 107 _________O____ -1 -19.2000 56.7000 TC 7 145
1892102S11062 1892 13 SI MM NOT_NAMED 1892-04-13 21:00:00 TS -19.4392 56.8540 main 100 45 _________P____ -1 -19.4392 56.8540 TC 8 142
1892102S11062 1892 13 SI MM NOT_NAMED 1892-04-14 00:00:00 TS -19.8000 57.2000 main 45 0 _________O____ -1 -19.8000 57.2000 TC 15 134
1892102S11062 1892 13 SI MM NOT_NAMED 1892-04-14 03:00:00 TS -20.4629 57.9864 main 30 30 _________P____ -1 -20.4629 57.9864 TC 22 130
1892102S11062 1892 13 SI MM NOT_NAMED 1892-04-14 06:00:00 TS -21.2000 59.0000 main 156 156 _________O____ -1 -21.2000 59.0000 TC 23 125
1892102S11062 1892 13 SI MM NOT_NAMED 1892-04-14 09:00:00 TS -21.7719 59.9712 main 279 279 _________P____ -1 -21.7719 59.9712 TC 22 121
1892102S11062 1892 13 SI MM NOT_NAMED 1892-04-14 12:00:00 TS -22.3000 61.0000 main 396 396 _________O____ -1 -22.3000 61.0000 TC 22 119
1892102S11062 1892 13 SI MM NOT_NAMED 1892-04-14 15:00:00 TS -22.8645 62.0853 main 527 527 _________P____ -1 -22.8645 62.0853 TC 23 118
1892102S11062 1892 13 SI MM NOT_NAMED 1892-04-14 18:00:00 TS -23.4000 63.2000 main 653 653 _________O____ -1 -23.4000 63.2000 TC 23 116
1892102S11062 1892 13 SI MM NOT_NAMED 1892-04-14 21:00:00 TS -23.8714 64.3038 main 778 778 _________P____ -1 -23.8714 64.3038 TC 22 114
1892102S11062 1892 13 SI MM NOT_NAMED 1892-04-15 00:00:00 TS -24.3000 65.4000 main 897 _________O____ -1 -24.3000 65.4000 TC 22 113

About IBTrACS Database

This database is a web-friendly format of International Best Track Archive for Climate Stewardship (IBTrACS), a global best track data archive curated by NOAA dating back to 1842.

Updated: 2021-10-21